LFRQ/UIP METAR and TAF weather

Enter ICAO airport designator
Station Type Date Time Source
LFRQ METAR 2019/02/16 17:30 UTC NOAA

LFRQ 161730Z AUTO 14008KT 100V170 1900 BR VV/// 07/07 Q1021 BECMG 9999 NSW SCT015 SCT040


Station Type Date Time Source
LFRQ Decoded METAR 2019/02/16 17:30 UTC NOAA

Quimper, France (LFRQ) 47-58N 004-10W 94M
Feb 16, 2019 - 12:30 PM EST / 2019.02.16 1730 UTC
Wind: from the SE (140 degrees) at 9 MPH (8 KT) (direction variable):0
Visibility: 1 mile(s):0
Sky conditions: obscured
Weather: mist
Temperature: 44 F (7 C)
Dew Point: 44 F (7 C)
Relative Humidity: 100%
Pressure (altimeter): 30.15 in. Hg (1021 hPa)
ob: LFRQ 161730Z AUTO 14008KT 100V170 1900 BR VV/// 07/07 Q1021 BECMG 9999 NSW SCT015 SCT040
cycle: 17

Station Type Date Time Source
LFRQ TAF 2019/02/16 18:41 UTC NOAA

TAF LFRQ 161700Z 1618/1718 13008KT 2500 BR OVC002
TEMPO 1618/1622 8000 NSC
BECMG 1710/1712 RADZ OVC001


Example: see airport list